createdAt,value
2023-02-25T00:01:12.014Z,94.33
2023-02-25T00:04:03.228Z,93.49
2023-02-25T00:06:52.835Z,93.45
2023-02-25T00:09:42.065Z,93.85
2023-02-25T00:12:31.639Z,92.46
2023-02-25T00:15:21.111Z,92.83
2023-02-25T00:18:10.386Z,93.30
2023-02-25T00:21:01.916Z,93.30
2023-02-25T00:23:53.794Z,94.05
2023-02-25T00:26:43.371Z,94.67
2023-02-25T00:29:33.204Z,94.51
2023-02-25T00:32:24.844Z,94.63
2023-02-25T00:35:14.208Z,95.77
2023-02-25T00:38:15.725Z,95.36
2023-02-25T00:41:12.922Z,95.56
2023-02-25T00:44:03.465Z,95.31
2023-02-25T00:46:54.227Z,95.39
2023-02-25T00:49:43.981Z,96.07
2023-02-25T00:52:34.884Z,97.51
2023-02-25T00:55:31.004Z,97.70
2023-02-25T00:58:21.431Z,97.86
2023-02-25T01:01:19.237Z,98.61
2023-02-25T01:04:10.118Z,97.51
2023-02-25T01:07:02.748Z,97.69
2023-02-25T01:09:56.852Z,98.15
2023-02-25T01:12:48.477Z,97.71
2023-02-25T01:15:38.345Z,97.13
2023-02-25T01:18:28.017Z,97.72
2023-02-25T01:21:19.059Z,97.53
2023-02-25T01:24:12.819Z,98.21
2023-02-25T01:27:04.439Z,98.11
2023-02-25T01:29:55.759Z,98.20
2023-02-25T01:32:45.055Z,98.15
2023-02-25T01:35:39.213Z,99.56
2023-02-25T01:38:30.434Z,98.70
2023-02-25T01:41:20.440Z,99.98
2023-02-25T01:44:14.250Z,99.75
2023-02-25T01:47:07.366Z,99.40
2023-02-25T01:49:57.415Z,100.00
2023-02-25T01:52:47.229Z,99.51
2023-02-25T01:55:37.116Z,100.00
2023-02-25T01:58:27.207Z,100.00
2023-02-25T02:01:22.096Z,100.00
2023-02-25T02:04:16.532Z,100.00
2023-02-25T02:07:06.481Z,100.00
2023-02-25T02:09:57.372Z,100.00
2023-02-25T02:12:48.069Z,99.96
2023-02-25T02:15:40.833Z,100.00
2023-02-25T02:18:34.707Z,99.67
2023-02-25T02:21:55.112Z,99.18
2023-02-25T02:25:22.005Z,99.09
2023-02-25T02:28:41.290Z,98.95
2023-02-25T02:31:46.146Z,99.33
2023-02-25T02:34:43.643Z,99.12
2023-02-25T02:37:39.244Z,99.37
2023-02-25T02:40:40.572Z,98.93
2023-02-25T02:43:39.462Z,99.39
2023-02-25T02:46:30.966Z,99.97
2023-02-25T02:49:25.417Z,99.30
2023-02-25T02:52:20.021Z,100.00
2023-02-25T02:55:13.569Z,100.00
2023-02-25T02:58:07.263Z,100.00
2023-02-25T03:01:02.645Z,100.00
2023-02-25T03:03:55.066Z,100.00
2023-02-25T03:07:09.664Z,100.00
2023-02-25T03:10:03.756Z,100.00
2023-02-25T03:12:56.892Z,100.00
2023-02-25T03:15:46.752Z,100.00
2023-02-25T03:18:39.404Z,100.00
2023-02-25T03:21:34.352Z,100.00
2023-02-25T03:24:30.902Z,100.00
2023-02-25T03:27:29.593Z,100.00
2023-02-25T03:30:29.149Z,100.00
2023-02-25T03:33:23.595Z,100.00
2023-02-25T03:36:15.462Z,100.00
2023-02-25T03:39:09.202Z,100.00
2023-02-25T03:42:02.269Z,100.00
2023-02-25T03:44:55.428Z,100.00
2023-02-25T03:47:45.632Z,100.00
2023-02-25T03:50:39.724Z,100.00
2023-02-25T03:53:35.052Z,100.00
2023-02-25T03:57:14.536Z,100.00
2023-02-25T04:00:15.907Z,100.00
2023-02-25T04:03:06.638Z,100.00
2023-02-25T04:05:56.697Z,100.00
2023-02-25T04:08:46.383Z,100.00
2023-02-25T04:11:36.345Z,100.00
2023-02-25T04:14:27.596Z,100.00
2023-02-25T04:17:17.867Z,100.00
2023-02-25T04:20:08.716Z,100.00
2023-02-25T04:22:59.371Z,100.00
2023-02-25T04:25:49.234Z,100.00
2023-02-25T04:28:38.839Z,100.00
2023-02-25T04:31:30.552Z,100.00
2023-02-25T04:34:21.066Z,100.00
2023-02-25T04:37:10.765Z,100.00
2023-02-25T04:40:05.299Z,100.00
2023-02-25T04:42:55.227Z,99.27
2023-02-25T04:45:49.717Z,98.75
2023-02-25T04:48:42.083Z,97.60
2023-02-25T04:51:31.637Z,96.55
2023-02-25T04:54:21.847Z,96.47
2023-02-25T05:02:23.290Z,95.17
2023-02-25T05:05:14.515Z,94.67
2023-02-25T05:08:05.422Z,94.83
2023-02-25T05:11:01.258Z,94.91
2023-02-25T05:13:51.153Z,93.00
2023-02-25T05:16:40.925Z,93.29
2023-02-25T05:19:30.513Z,93.69
2023-02-25T05:22:23.150Z,94.16
2023-02-25T05:25:13.172Z,93.63
2023-02-25T05:28:04.107Z,92.51
2023-02-25T05:30:55.696Z,93.30
2023-02-25T05:33:46.396Z,93.26
2023-02-25T05:36:36.276Z,91.83
2023-02-25T05:39:27.687Z,92.77
2023-02-25T05:42:29.951Z,92.57
2023-02-25T05:45:26.913Z,92.72
2023-02-25T05:48:17.084Z,92.44
2023-02-25T05:51:08.632Z,92.42
2023-02-25T05:53:58.817Z,93.12
2023-02-25T05:56:52.803Z,93.54
2023-02-25T05:59:42.585Z,93.05
2023-02-25T06:02:34.473Z,92.95
2023-02-25T06:05:24.788Z,93.14
2023-02-25T06:08:14.796Z,91.93
2023-02-25T06:11:07.955Z,90.96
2023-02-25T06:14:01.611Z,91.96
2023-02-25T06:16:51.943Z,91.52
2023-02-25T06:19:42.104Z,90.91
2023-02-25T06:22:31.798Z,90.92
2023-02-25T06:25:21.674Z,91.20
2023-02-25T06:28:12.355Z,90.46
2023-02-25T06:31:04.327Z,90.96
2023-02-25T06:34:01.445Z,91.43
2023-02-25T06:36:51.488Z,91.60
2023-02-25T06:39:43.383Z,91.19
2023-02-25T06:42:32.943Z,90.62
2023-02-25T06:45:24.381Z,89.59
2023-02-25T06:48:15.587Z,89.39
2023-02-25T06:51:09.447Z,88.43
2023-02-25T06:53:59.975Z,89.08
2023-02-25T06:56:50.463Z,88.58
2023-02-25T06:59:39.942Z,89.15
2023-02-25T07:02:29.470Z,88.31
2023-02-25T07:05:20.347Z,89.10
2023-02-25T07:08:09.758Z,88.03
2023-02-25T07:11:14.573Z,87.57
2023-02-25T07:14:05.533Z,87.30
2023-02-25T07:16:55.091Z,88.88
2023-02-25T07:19:45.213Z,89.09
2023-02-25T07:22:36.003Z,88.68
2023-02-25T07:25:26.129Z,86.84
2023-02-25T07:28:16.598Z,85.88
2023-02-25T07:31:11.727Z,85.04
2023-02-25T07:34:03.863Z,84.49
2023-02-25T07:36:53.504Z,83.90
2023-02-25T07:39:46.918Z,83.68
2023-02-25T07:42:37.282Z,83.66
2023-02-25T07:45:28.732Z,82.15
2023-02-25T07:48:18.395Z,82.49
2023-02-25T07:51:09.188Z,82.53
2023-02-25T07:53:59.389Z,82.65
2023-02-25T07:56:52.316Z,82.65
2023-02-25T07:59:41.994Z,83.67
2023-02-25T08:02:31.617Z,82.27
2023-02-25T08:05:24.256Z,83.53
2023-02-25T08:08:14.323Z,81.89
2023-02-25T08:11:08.013Z,79.98
2023-02-25T08:14:01.889Z,80.49
2023-02-25T08:16:53.544Z,80.89
2023-02-25T08:19:43.698Z,82.09
2023-02-25T08:22:33.377Z,79.00
2023-02-25T08:25:23.474Z,78.81
2023-02-25T08:28:15.077Z,76.72
2023-02-25T08:31:08.692Z,76.08
2023-02-25T08:33:59.716Z,77.41
2023-02-25T08:36:50.290Z,77.87
2023-02-25T08:39:43.131Z,76.02
2023-02-25T08:42:36.174Z,76.50
2023-02-25T08:45:26.287Z,75.81
2023-02-25T08:48:17.397Z,75.17
2023-02-25T08:51:08.850Z,74.59
2023-02-25T08:53:59.005Z,74.40
2023-02-25T08:56:49.286Z,70.51
2023-02-25T08:59:40.077Z,71.97
2023-02-25T09:02:30.090Z,70.86
2023-02-25T09:05:21.750Z,69.31
2023-02-25T09:08:11.368Z,69.88
2023-02-25T09:11:01.265Z,66.09
2023-02-25T09:13:51.274Z,64.67
2023-02-25T09:16:41.018Z,66.26
2023-02-25T09:19:31.139Z,65.56
2023-02-25T09:22:22.672Z,68.74
2023-02-25T09:25:14.225Z,69.07
2023-02-25T09:28:04.337Z,68.10
2023-02-25T09:30:54.591Z,68.82
2023-02-25T09:33:44.521Z,69.71
2023-02-25T09:36:34.907Z,68.11
2023-02-25T09:39:25.866Z,65.28
2023-02-25T09:42:18.699Z,67.64
2023-02-25T09:45:14.915Z,66.46
2023-02-25T09:48:07.428Z,65.08
2023-02-25T09:51:10.995Z,68.79
2023-02-25T09:54:22.349Z,67.25
2023-02-25T09:57:25.467Z,65.11
2023-02-25T10:00:19.151Z,65.95
2023-02-25T10:03:14.268Z,64.78
2023-02-25T10:06:05.391Z,66.63
2023-02-25T10:09:01.407Z,68.23
2023-02-25T10:11:53.716Z,64.17
2023-02-25T10:14:57.456Z,63.42
2023-02-25T10:18:03.193Z,63.90
2023-02-25T10:21:08.023Z,62.73
2023-02-25T10:24:10.966Z,63.15
2023-02-25T10:27:05.810Z,60.91
2023-02-25T10:29:58.819Z,62.48
2023-02-25T10:32:49.208Z,62.45
2023-02-25T10:35:40.494Z,61.36
2023-02-25T10:38:29.970Z,61.60
2023-02-25T10:41:23.078Z,63.33
2023-02-25T10:44:14.640Z,62.96
2023-02-25T10:47:06.455Z,62.85
2023-02-25T10:50:14.290Z,61.30
2023-02-25T10:53:05.704Z,62.92
2023-02-25T10:55:55.883Z,61.38
2023-02-25T10:58:48.216Z,61.34
2023-02-25T11:01:40.446Z,61.05
2023-02-25T11:04:34.827Z,64.80
2023-02-25T11:07:27.108Z,64.96
2023-02-25T11:10:18.585Z,63.03
2023-02-25T11:13:10.565Z,63.63
2023-02-25T11:16:02.314Z,60.88
2023-02-25T11:18:54.685Z,63.62
2023-02-25T11:21:45.648Z,60.94
2023-02-25T11:24:36.448Z,61.46
2023-02-25T11:27:38.993Z,64.59
2023-02-25T11:30:33.703Z,64.90
2023-02-25T11:33:25.834Z,64.75
2023-02-25T11:36:15.169Z,65.01
2023-02-25T11:39:16.793Z,65.79
2023-02-25T11:42:24.590Z,65.46
2023-02-25T11:45:18.791Z,64.37
2023-02-25T11:48:18.945Z,63.56
2023-02-25T11:51:18.758Z,63.85
2023-02-25T11:54:25.313Z,63.40
2023-02-25T11:57:18.212Z,62.83
2023-02-25T12:00:22.799Z,63.57
2023-02-25T12:03:24.898Z,62.28
2023-02-25T12:06:29.951Z,59.99
2023-02-25T12:09:44.635Z,61.83
2023-02-25T12:12:57.275Z,61.89
2023-02-25T12:16:19.009Z,62.20
2023-02-25T12:19:32.836Z,64.34
2023-02-25T12:22:48.946Z,65.27
2023-02-25T12:25:45.412Z,64.24
2023-02-25T12:28:51.994Z,65.00
2023-02-25T12:32:11.196Z,65.98
2023-02-25T12:35:44.524Z,64.12
2023-02-25T12:39:01.832Z,65.20
2023-02-25T12:42:01.678Z,65.77
2023-02-25T12:45:03.580Z,63.10
2023-02-25T12:48:11.648Z,63.70
2023-02-25T12:51:16.721Z,64.56
2023-02-25T12:54:16.114Z,64.42
2023-02-25T12:57:22.131Z,64.92
2023-02-25T13:00:43.472Z,65.09
2023-02-25T13:03:41.268Z,63.64
2023-02-25T13:06:43.618Z,63.73
2023-02-25T13:10:08.587Z,64.50
2023-02-25T13:13:07.642Z,63.58
2023-02-25T13:16:04.695Z,65.14
2023-02-25T13:19:02.838Z,64.51
2023-02-25T13:22:05.484Z,65.71
2023-02-25T13:25:01.474Z,63.42
2023-02-25T13:28:06.216Z,63.63
2023-02-25T13:30:59.467Z,63.15
2023-02-25T13:34:01.552Z,64.47
2023-02-25T13:37:03.304Z,63.55
2023-02-25T13:40:01.731Z,61.95
2023-02-25T13:43:01.509Z,59.65
2023-02-25T13:46:08.132Z,59.91
2023-02-25T13:49:10.310Z,59.49
2023-02-25T13:52:09.876Z,59.99
2023-02-25T13:55:23.899Z,59.81
2023-02-25T13:58:30.492Z,60.66
2023-02-25T14:01:52.846Z,61.68
2023-02-25T14:05:17.168Z,61.02
2023-02-25T14:08:26.783Z,59.35
2023-02-25T14:11:29.920Z,58.05
2023-02-25T14:14:33.005Z,57.77
2023-02-25T14:17:36.564Z,58.28
2023-02-25T14:20:39.061Z,57.14
2023-02-25T14:23:46.429Z,56.70
2023-02-25T14:26:42.567Z,54.93
2023-02-25T14:29:44.350Z,57.06
2023-02-25T14:32:50.178Z,57.63
2023-02-25T14:36:02.380Z,58.61
2023-02-25T14:39:06.088Z,57.08
2023-02-25T14:42:02.930Z,57.51
2023-02-25T14:44:56.879Z,58.29
2023-02-25T14:47:54.911Z,58.75
2023-02-25T14:50:48.062Z,59.59
2023-02-25T14:53:51.589Z,59.53
2023-02-25T14:56:50.070Z,58.46
2023-02-25T14:59:59.896Z,58.12
2023-02-25T15:03:22.890Z,58.70
2023-02-25T15:06:24.648Z,59.30
2023-02-25T15:09:33.294Z,59.74
2023-02-25T15:12:37.188Z,59.19
2023-02-25T15:15:36.551Z,60.31
2023-02-25T15:18:54.389Z,60.31
2023-02-25T15:21:47.170Z,62.40
2023-02-25T15:24:41.776Z,61.77
2023-02-25T15:27:49.861Z,62.50
2023-02-25T15:31:09.661Z,63.08
2023-02-25T15:34:44.895Z,63.22
2023-02-25T15:37:37.321Z,63.28
2023-02-25T15:40:51.139Z,65.25
2023-02-25T15:43:43.766Z,65.38
2023-02-25T15:46:42.799Z,64.09
2023-02-25T15:49:34.773Z,64.61
2023-02-25T15:52:57.935Z,64.57
2023-02-25T15:55:47.983Z,64.59
2023-02-25T15:58:52.889Z,65.71
2023-02-25T16:01:44.026Z,65.59
2023-02-25T16:04:46.679Z,64.59
2023-02-25T16:07:37.795Z,65.49
2023-02-25T16:10:35.055Z,66.63
2023-02-25T16:13:28.811Z,66.19
2023-02-25T16:16:18.847Z,67.75
2023-02-25T16:19:12.224Z,67.47
2023-02-25T16:22:03.780Z,74.36
2023-02-25T16:24:54.712Z,79.36
2023-02-25T16:27:54.585Z,80.14
2023-02-25T16:30:48.548Z,82.20
2023-02-25T16:33:46.210Z,82.33
2023-02-25T16:36:38.481Z,83.31
2023-02-25T16:39:28.240Z,83.85
2023-02-25T16:42:19.733Z,84.00
2023-02-25T16:45:25.470Z,84.57
2023-02-25T16:48:19.861Z,86.49
2023-02-25T16:51:11.595Z,85.15
2023-02-25T16:54:06.559Z,85.45
2023-02-25T16:57:00.141Z,86.32
2023-02-25T16:59:51.177Z,85.93
2023-02-25T17:02:48.032Z,85.83
2023-02-25T17:05:39.769Z,86.69
2023-02-25T17:08:29.904Z,86.45
2023-02-25T17:11:22.896Z,87.25
2023-02-25T17:14:13.033Z,87.24
2023-02-25T17:17:02.893Z,87.81
2023-02-25T17:19:54.061Z,87.10
2023-02-25T17:22:46.302Z,86.38
2023-02-25T17:25:40.000Z,85.50
2023-02-25T17:28:31.318Z,85.33
2023-02-25T17:31:27.282Z,84.97
2023-02-25T17:34:19.255Z,85.08
2023-02-25T17:37:13.650Z,84.54
2023-02-25T17:40:04.796Z,83.51
2023-02-25T17:43:18.943Z,84.25
2023-02-25T17:46:18.602Z,83.25
2023-02-25T17:49:21.560Z,83.74
2023-02-25T17:52:20.448Z,83.89
2023-02-25T17:55:23.638Z,83.64
2023-02-25T17:58:23.885Z,83.08
2023-02-25T18:01:25.826Z,83.58
2023-02-25T18:04:25.376Z,84.95
2023-02-25T18:07:32.797Z,86.60
2023-02-25T18:10:49.966Z,86.18
2023-02-25T18:13:40.160Z,85.82
2023-02-25T18:16:45.090Z,86.96
2023-02-25T18:19:39.479Z,87.61
2023-02-25T18:22:33.969Z,88.57
2023-02-25T18:25:31.733Z,89.70
2023-02-25T18:28:23.119Z,89.68
2023-02-25T18:31:14.841Z,90.12
2023-02-25T18:34:04.827Z,91.09
2023-02-25T18:36:54.762Z,90.74
2023-02-25T18:39:46.579Z,90.52
2023-02-25T18:42:36.004Z,89.99
2023-02-25T18:45:27.065Z,89.94
2023-02-25T18:48:17.868Z,89.62
2023-02-25T18:51:12.872Z,89.50
2023-02-25T18:54:02.236Z,89.62
2023-02-25T18:56:53.559Z,89.93
2023-02-25T18:59:43.442Z,90.53
2023-02-25T19:02:34.581Z,90.93
2023-02-25T19:05:25.691Z,90.97
2023-02-25T19:08:16.858Z,90.95
2023-02-25T19:11:07.512Z,90.45
2023-02-25T19:13:59.312Z,90.55
2023-02-25T19:16:52.360Z,90.27
2023-02-25T19:19:46.779Z,90.65
2023-02-25T19:22:37.586Z,90.63
2023-02-25T19:25:29.332Z,90.68
2023-02-25T19:28:19.066Z,91.35
2023-02-25T19:31:09.979Z,91.38
2023-02-25T19:34:00.113Z,91.42
2023-02-25T19:36:49.972Z,91.49
2023-02-25T19:39:39.716Z,91.62
2023-02-25T19:42:30.347Z,91.49
2023-02-25T19:45:22.486Z,91.47
2023-02-25T19:48:13.911Z,92.68
2023-02-25T19:51:07.297Z,92.19
2023-02-25T19:53:57.271Z,92.03
2023-02-25T19:56:46.804Z,92.36
2023-02-25T19:59:36.488Z,92.62
2023-02-25T20:02:26.398Z,92.57
2023-02-25T20:05:17.846Z,93.23
2023-02-25T20:08:17.323Z,94.31
2023-02-25T20:11:10.178Z,94.95
2023-02-25T20:14:02.008Z,95.21
2023-02-25T20:16:52.219Z,95.28
2023-02-25T20:19:51.413Z,95.25
2023-02-25T20:22:43.548Z,95.44
2023-02-25T20:25:33.641Z,95.30
2023-02-25T20:28:24.442Z,95.86
2023-02-25T20:31:15.805Z,96.45
2023-02-25T20:34:14.578Z,97.21
2023-02-25T20:37:07.202Z,97.41
2023-02-25T20:40:00.179Z,97.25
2023-02-25T20:42:50.153Z,97.44
2023-02-25T20:45:40.790Z,97.02
2023-02-25T20:48:32.276Z,96.70
2023-02-25T20:51:22.580Z,95.71
2023-02-25T20:54:12.598Z,95.73
2023-02-25T20:57:04.642Z,95.07
2023-02-25T20:59:55.161Z,94.64
2023-02-25T21:02:45.074Z,92.43
2023-02-25T21:05:35.126Z,93.05
2023-02-25T21:08:25.034Z,91.11
2023-02-25T21:11:15.408Z,90.86
2023-02-25T21:14:10.540Z,91.47
2023-02-25T21:17:01.446Z,91.18
2023-02-25T21:19:52.845Z,90.77
2023-02-25T21:22:42.887Z,90.02
2023-02-25T21:25:34.047Z,90.03
2023-02-25T21:28:24.216Z,89.80
2023-02-25T21:31:17.519Z,89.75
2023-02-25T21:34:09.370Z,89.28
2023-02-25T21:36:59.852Z,88.30
2023-02-25T21:39:49.629Z,88.58
2023-02-25T21:42:39.417Z,87.36
2023-02-25T21:45:29.690Z,87.51
2023-02-25T21:48:21.240Z,86.40
2023-02-25T21:51:16.541Z,87.01
2023-02-25T21:54:06.541Z,85.74
2023-02-25T21:56:56.308Z,85.76
2023-02-25T21:59:46.500Z,85.70
2023-02-25T22:02:36.180Z,86.57
2023-02-25T22:05:27.850Z,85.65
2023-02-25T22:08:17.637Z,85.64
2023-02-25T22:11:08.193Z,86.31
2023-02-25T22:13:57.605Z,86.67
2023-02-25T22:16:47.491Z,85.51
2023-02-25T22:19:38.052Z,86.51
2023-02-25T22:22:29.467Z,87.35
2023-02-25T22:25:19.986Z,86.97
2023-02-25T22:28:09.781Z,86.04
2023-02-25T22:30:59.932Z,86.23
2023-02-25T22:33:52.202Z,86.56
2023-02-25T22:36:42.432Z,87.46
2023-02-25T22:39:34.001Z,86.38
2023-02-25T22:42:24.082Z,85.69
2023-02-25T22:45:14.276Z,86.57
2023-02-25T22:48:03.958Z,86.90
2023-02-25T22:50:53.541Z,87.59
2023-02-25T22:53:43.314Z,86.40
2023-02-25T22:56:35.207Z,86.75
2023-02-25T22:59:25.956Z,88.91
2023-02-25T23:02:15.740Z,87.40
2023-02-25T23:05:06.226Z,87.56
2023-02-25T23:07:56.318Z,87.14
2023-02-25T23:10:46.435Z,88.00
2023-02-25T23:13:38.134Z,87.44
2023-02-25T23:16:31.528Z,87.69
2023-02-25T23:19:21.869Z,87.17
2023-02-25T23:22:18.650Z,87.44
2023-02-25T23:25:10.571Z,87.63
2023-02-25T23:28:00.564Z,86.85
2023-02-25T23:30:54.658Z,87.67
2023-02-25T23:33:44.609Z,86.88
2023-02-25T23:36:34.767Z,86.26
2023-02-25T23:39:25.024Z,86.75
2023-02-25T23:42:15.063Z,85.97
2023-02-25T23:45:07.140Z,85.52
2023-02-25T23:47:58.302Z,86.37
2023-02-25T23:50:48.119Z,86.06
2023-02-25T23:53:37.906Z,86.58
2023-02-25T23:56:28.488Z,84.83
2023-02-25T23:59:18.686Z,85.16
